sensor_id;sensor_type;location;lat;lon;timestamp;P1;durP1;ratioP1;P2;durP2;ratioP2
51174;SDS011;37240;50.104;20.010;2024-02-26T00:04:43;50.63;;;17.35;;
51174;SDS011;37240;50.104;20.010;2024-02-26T00:09:43;54.17;;;19.38;;
51174;SDS011;37240;50.104;20.010;2024-02-26T00:14:44;46.50;;;18.30;;
51174;SDS011;37240;50.104;20.010;2024-02-26T00:19:44;55.47;;;19.90;;
51174;SDS011;37240;50.104;20.010;2024-02-26T00:24:45;52.75;;;19.25;;
51174;SDS011;37240;50.104;20.010;2024-02-26T00:29:45;54.88;;;18.33;;
51174;SDS011;37240;50.104;20.010;2024-02-26T00:34:46;50.28;;;17.90;;
51174;SDS011;37240;50.104;20.010;2024-02-26T00:39:46;45.83;;;16.80;;
51174;SDS011;37240;50.104;20.010;2024-02-26T00:44:47;50.97;;;19.00;;
51174;SDS011;37240;50.104;20.010;2024-02-26T00:49:47;47.40;;;18.15;;
51174;SDS011;37240;50.104;20.010;2024-02-26T00:54:48;57.80;;;19.92;;
51174;SDS011;37240;50.104;20.010;2024-02-26T00:59:48;52.50;;;19.55;;
51174;SDS011;37240;50.104;20.010;2024-02-26T01:04:49;50.50;;;19.30;;
51174;SDS011;37240;50.104;20.010;2024-02-26T01:09:49;58.03;;;20.55;;
51174;SDS011;37240;50.104;20.010;2024-02-26T01:14:50;48.53;;;18.92;;
51174;SDS011;37240;50.104;20.010;2024-02-26T01:19:50;56.05;;;18.83;;
51174;SDS011;37240;50.104;20.010;2024-02-26T01:24:51;47.70;;;18.60;;
51174;SDS011;37240;50.104;20.010;2024-02-26T01:29:52;53.97;;;18.85;;
51174;SDS011;37240;50.104;20.010;2024-02-26T01:34:52;52.33;;;18.38;;
51174;SDS011;37240;50.104;20.010;2024-02-26T01:39:53;54.22;;;19.45;;
51174;SDS011;37240;50.104;20.010;2024-02-26T01:44:53;55.10;;;19.30;;
51174;SDS011;37240;50.104;20.010;2024-02-26T01:49:54;54.22;;;19.90;;
51174;SDS011;37240;50.104;20.010;2024-02-26T01:54:54;49.83;;;18.92;;
51174;SDS011;37240;50.104;20.010;2024-02-26T01:59:55;51.95;;;19.52;;
51174;SDS011;37240;50.104;20.010;2024-02-26T02:04:56;42.92;;;17.98;;
51174;SDS011;37240;50.104;20.010;2024-02-26T02:09:56;45.17;;;18.20;;
51174;SDS011;37240;50.104;20.010;2024-02-26T02:14:58;59.03;;;19.85;;
51174;SDS011;37240;50.104;20.010;2024-02-26T02:19:58;64.43;;;21.02;;
51174;SDS011;37240;50.104;20.010;2024-02-26T02:24:59;56.92;;;20.75;;
51174;SDS011;37240;50.104;20.010;2024-02-26T02:29:59;50.55;;;19.85;;
51174;SDS011;37240;50.104;20.010;2024-02-26T02:35:01;61.30;;;21.83;;
51174;SDS011;37240;50.104;20.010;2024-02-26T02:40:01;55.72;;;19.58;;
51174;SDS011;37240;50.104;20.010;2024-02-26T02:45:02;50.22;;;19.45;;
51174;SDS011;37240;50.104;20.010;2024-02-26T02:50:03;49.83;;;20.85;;
51174;SDS011;37240;50.104;20.010;2024-02-26T02:55:04;60.85;;;22.02;;
51174;SDS011;37240;50.104;20.010;2024-02-26T03:00:05;53.15;;;19.92;;
51174;SDS011;37240;50.104;20.010;2024-02-26T03:05:08;49.17;;;19.60;;
51174;SDS011;37240;50.104;20.010;2024-02-26T03:10:08;59.63;;;22.02;;
51174;SDS011;37240;50.104;20.010;2024-02-26T03:15:09;51.75;;;19.80;;
51174;SDS011;37240;50.104;20.010;2024-02-26T03:20:10;51.58;;;20.42;;
51174;SDS011;37240;50.104;20.010;2024-02-26T03:25:10;54.88;;;19.52;;
51174;SDS011;37240;50.104;20.010;2024-02-26T03:30:11;39.95;;;17.77;;
51174;SDS011;37240;50.104;20.010;2024-02-26T03:35:12;50.95;;;18.42;;
51174;SDS011;37240;50.104;20.010;2024-02-26T03:40:12;51.70;;;17.77;;
51174;SDS011;37240;50.104;20.010;2024-02-26T03:45:13;47.53;;;19.27;;
51174;SDS011;37240;50.104;20.010;2024-02-26T03:50:14;56.28;;;20.45;;
51174;SDS011;37240;50.104;20.010;2024-02-26T03:55:14;56.22;;;19.38;;
51174;SDS011;37240;50.104;20.010;2024-02-26T04:00:15;55.85;;;19.40;;
51174;SDS011;37240;50.104;20.010;2024-02-26T04:05:16;46.60;;;17.83;;
51174;SDS011;37240;50.104;20.010;2024-02-26T04:10:16;58.88;;;20.52;;
51174;SDS011;37240;50.104;20.010;2024-02-26T04:15:17;46.40;;;18.27;;
51174;SDS011;37240;50.104;20.010;2024-02-26T04:20:17;58.25;;;20.52;;
51174;SDS011;37240;50.104;20.010;2024-02-26T04:25:18;55.05;;;20.70;;
51174;SDS011;37240;50.104;20.010;2024-02-26T04:30:19;57.35;;;20.27;;
51174;SDS011;37240;50.104;20.010;2024-02-26T04:35:19;56.55;;;20.35;;
51174;SDS011;37240;50.104;20.010;2024-02-26T04:40:20;54.50;;;20.48;;
51174;SDS011;37240;50.104;20.010;2024-02-26T04:45:20;54.70;;;17.58;;
51174;SDS011;37240;50.104;20.010;2024-02-26T04:50:21;46.03;;;16.85;;
51174;SDS011;37240;50.104;20.010;2024-02-26T04:55:21;53.05;;;20.23;;
51174;SDS011;37240;50.104;20.010;2024-02-26T05:00:22;60.90;;;21.02;;
51174;SDS011;37240;50.104;20.010;2024-02-26T05:05:22;55.67;;;20.83;;
51174;SDS011;37240;50.104;20.010;2024-02-26T05:10:23;49.88;;;20.10;;
51174;SDS011;37240;50.104;20.010;2024-02-26T05:15:23;52.17;;;20.52;;
51174;SDS011;37240;50.104;20.010;2024-02-26T05:20:24;56.35;;;20.73;;
51174;SDS011;37240;50.104;20.010;2024-02-26T05:25:25;52.83;;;20.10;;
51174;SDS011;37240;50.104;20.010;2024-02-26T05:30:25;55.53;;;21.88;;
51174;SDS011;37240;50.104;20.010;2024-02-26T05:35:26;58.17;;;21.52;;
51174;SDS011;37240;50.104;20.010;2024-02-26T05:40:26;53.47;;;21.30;;
51174;SDS011;37240;50.104;20.010;2024-02-26T05:45:27;57.72;;;22.00;;
51174;SDS011;37240;50.104;20.010;2024-02-26T05:50:28;54.95;;;21.38;;
51174;SDS011;37240;50.104;20.010;2024-02-26T05:55:28;52.22;;;21.20;;
51174;SDS011;37240;50.104;20.010;2024-02-26T06:00:29;48.20;;;17.75;;
51174;SDS011;37240;50.104;20.010;2024-02-26T06:05:29;43.47;;;18.65;;
51174;SDS011;37240;50.104;20.010;2024-02-26T06:10:30;49.55;;;18.40;;
51174;SDS011;37240;50.104;20.010;2024-02-26T06:15:30;54.85;;;19.92;;
51174;SDS011;37240;50.104;20.010;2024-02-26T06:20:31;44.08;;;16.60;;
51174;SDS011;37240;50.104;20.010;2024-02-26T06:25:31;40.28;;;17.55;;
51174;SDS011;37240;50.104;20.010;2024-02-26T06:30:32;63.83;;;20.60;;
51174;SDS011;37240;50.104;20.010;2024-02-26T06:35:32;52.15;;;19.15;;
51174;SDS011;37240;50.104;20.010;2024-02-26T06:40:33;51.13;;;18.35;;
51174;SDS011;37240;50.104;20.010;2024-02-26T06:45:33;47.08;;;16.42;;
51174;SDS011;37240;50.104;20.010;2024-02-26T06:50:34;39.30;;;14.85;;
51174;SDS011;37240;50.104;20.010;2024-02-26T06:55:34;46.10;;;15.88;;
51174;SDS011;37240;50.104;20.010;2024-02-26T07:00:35;38.92;;;14.00;;
51174;SDS011;37240;50.104;20.010;2024-02-26T07:05:35;42.70;;;15.40;;
51174;SDS011;37240;50.104;20.010;2024-02-26T07:10:36;45.35;;;16.98;;
51174;SDS011;37240;50.104;20.010;2024-02-26T07:15:36;31.27;;;12.65;;
51174;SDS011;37240;50.104;20.010;2024-02-26T07:20:37;30.25;;;11.85;;
51174;SDS011;37240;50.104;20.010;2024-02-26T07:25:38;26.15;;;11.93;;
51174;SDS011;37240;50.104;20.010;2024-02-26T07:30:38;30.50;;;12.70;;
51174;SDS011;37240;50.104;20.010;2024-02-26T07:35:39;27.48;;;10.98;;
51174;SDS011;37240;50.104;20.010;2024-02-26T07:40:39;26.40;;;11.55;;
51174;SDS011;37240;50.104;20.010;2024-02-26T07:45:40;21.65;;;11.23;;
51174;SDS011;37240;50.104;20.010;2024-02-26T07:50:40;34.95;;;13.40;;
51174;SDS011;37240;50.104;20.010;2024-02-26T07:55:41;32.53;;;11.60;;
51174;SDS011;37240;50.104;20.010;2024-02-26T08:00:42;36.78;;;11.35;;
51174;SDS011;37240;50.104;20.010;2024-02-26T08:05:42;32.67;;;10.63;;
51174;SDS011;37240;50.104;20.010;2024-02-26T08:10:43;22.13;;;9.27;;
51174;SDS011;37240;50.104;20.010;2024-02-26T08:15:43;26.58;;;9.90;;
51174;SDS011;37240;50.104;20.010;2024-02-26T08:20:44;27.20;;;9.40;;
51174;SDS011;37240;50.104;20.010;2024-02-26T08:25:45;20.80;;;9.75;;
51174;SDS011;37240;50.104;20.010;2024-02-26T08:30:45;24.15;;;9.45;;
51174;SDS011;37240;50.104;20.010;2024-02-26T08:35:46;31.77;;;9.15;;
51174;SDS011;37240;50.104;20.010;2024-02-26T08:40:46;25.13;;;10.15;;
51174;SDS011;37240;50.104;20.010;2024-02-26T08:45:47;24.55;;;9.93;;
51174;SDS011;37240;50.104;20.010;2024-02-26T08:50:47;24.85;;;10.23;;
51174;SDS011;37240;50.104;20.010;2024-02-26T08:55:48;19.40;;;8.88;;
51174;SDS011;37240;50.104;20.010;2024-02-26T09:00:49;27.80;;;9.98;;
51174;SDS011;37240;50.104;20.010;2024-02-26T09:05:49;26.27;;;9.05;;
51174;SDS011;37240;50.104;20.010;2024-02-26T09:10:50;23.42;;;7.43;;
51174;SDS011;37240;50.104;20.010;2024-02-26T09:15:50;25.52;;;7.82;;
51174;SDS011;37240;50.104;20.010;2024-02-26T09:20:51;15.38;;;7.35;;
51174;SDS011;37240;50.104;20.010;2024-02-26T09:25:51;15.10;;;7.00;;
51174;SDS011;37240;50.104;20.010;2024-02-26T09:30:52;17.80;;;6.50;;
51174;SDS011;37240;50.104;20.010;2024-02-26T09:35:53;10.13;;;5.50;;
51174;SDS011;37240;50.104;20.010;2024-02-26T09:40:54;20.60;;;6.18;;
51174;SDS011;37240;50.104;20.010;2024-02-26T09:45:56;10.65;;;5.68;;
51174;SDS011;37240;50.104;20.010;2024-02-26T09:50:57;7.35;;;4.78;;
51174;SDS011;37240;50.104;20.010;2024-02-26T09:55:58;7.82;;;5.18;;
51174;SDS011;37240;50.104;20.010;2024-02-26T10:00:58;10.30;;;5.68;;
51174;SDS011;37240;50.104;20.010;2024-02-26T10:06:02;16.52;;;4.70;;
51174;SDS011;37240;50.104;20.010;2024-02-26T10:11:03;11.05;;;4.68;;
51174;SDS011;37240;50.104;20.010;2024-02-26T10:16:06;9.85;;;4.90;;
51174;SDS011;37240;50.104;20.010;2024-02-26T10:21:07;20.20;;;3.67;;
51174;SDS011;37240;50.104;20.010;2024-02-26T10:26:08;21.73;;;4.32;;
51174;SDS011;37240;50.104;20.010;2024-02-26T10:31:11;8.50;;;3.33;;
51174;SDS011;37240;50.104;20.010;2024-02-26T10:36:14;4.85;;;2.42;;
51174;SDS011;37240;50.104;20.010;2024-02-26T10:41:14;7.57;;;2.40;;
51174;SDS011;37240;50.104;20.010;2024-02-26T10:46:16;5.63;;;2.55;;
51174;SDS011;37240;50.104;20.010;2024-02-26T10:51:17;3.03;;;2.15;;
51174;SDS011;37240;50.104;20.010;2024-02-26T10:56:25;5.75;;;2.10;;
51174;SDS011;37240;50.104;20.010;2024-02-26T11:01:27;9.75;;;3.63;;
51174;SDS011;37240;50.104;20.010;2024-02-26T11:06:28;8.60;;;2.35;;
51174;SDS011;37240;50.104;20.010;2024-02-26T11:11:31;7.38;;;2.45;;
51174;SDS011;37240;50.104;20.010;2024-02-26T11:16:33;8.68;;;2.58;;
51174;SDS011;37240;50.104;20.010;2024-02-26T11:21:35;2.88;;;1.92;;
51174;SDS011;37240;50.104;20.010;2024-02-26T11:26:36;4.05;;;2.35;;
51174;SDS011;37240;50.104;20.010;2024-02-26T11:31:44;10.85;;;2.65;;
51174;SDS011;37240;50.104;20.010;2024-02-26T11:36:48;3.90;;;2.10;;
51174;SDS011;37240;50.104;20.010;2024-02-26T11:41:49;5.82;;;3.05;;
51174;SDS011;37240;50.104;20.010;2024-02-26T11:46:50;9.35;;;2.72;;
51174;SDS011;37240;50.104;20.010;2024-02-26T11:51:51;9.73;;;2.67;;
51174;SDS011;37240;50.104;20.010;2024-02-26T11:56:53;4.47;;;3.00;;
51174;SDS011;37240;50.104;20.010;2024-02-26T12:01:54;5.45;;;2.30;;
51174;SDS011;37240;50.104;20.010;2024-02-26T12:06:55;4.85;;;2.88;;
51174;SDS011;37240;50.104;20.010;2024-02-26T12:11:57;6.65;;;2.40;;
51174;SDS011;37240;50.104;20.010;2024-02-26T12:16:58;13.85;;;2.28;;
51174;SDS011;37240;50.104;20.010;2024-02-26T12:21:58;6.50;;;2.10;;
51174;SDS011;37240;50.104;20.010;2024-02-26T12:26:59;8.10;;;3.58;;
51174;SDS011;37240;50.104;20.010;2024-02-26T12:32:00;8.18;;;3.63;;
51174;SDS011;37240;50.104;20.010;2024-02-26T12:37:01;11.55;;;2.33;;
51174;SDS011;37240;50.104;20.010;2024-02-26T12:42:02;6.88;;;3.20;;
51174;SDS011;37240;50.104;20.010;2024-02-26T12:47:03;4.72;;;2.80;;
51174;SDS011;37240;50.104;20.010;2024-02-26T12:52:04;7.63;;;3.30;;
51174;SDS011;37240;50.104;20.010;2024-02-26T12:57:05;18.27;;;3.35;;
51174;SDS011;37240;50.104;20.010;2024-02-26T13:02:08;5.47;;;2.70;;
51174;SDS011;37240;50.104;20.010;2024-02-26T13:07:09;8.07;;;3.00;;
51174;SDS011;37240;50.104;20.010;2024-02-26T13:12:09;2.45;;;2.25;;
51174;SDS011;37240;50.104;20.010;2024-02-26T13:17:11;4.53;;;3.58;;
51174;SDS011;37240;50.104;20.010;2024-02-26T13:22:12;3.72;;;2.60;;
51174;SDS011;37240;50.104;20.010;2024-02-26T13:27:12;6.03;;;3.53;;
51174;SDS011;37240;50.104;20.010;2024-02-26T13:32:20;9.45;;;3.33;;
51174;SDS011;37240;50.104;20.010;2024-02-26T13:37:21;7.82;;;3.85;;
51174;SDS011;37240;50.104;20.010;2024-02-26T13:42:21;9.48;;;3.78;;
51174;SDS011;37240;50.104;20.010;2024-02-26T13:47:22;5.68;;;4.32;;
51174;SDS011;37240;50.104;20.010;2024-02-26T13:52:23;5.53;;;4.00;;
51174;SDS011;37240;50.104;20.010;2024-02-26T13:57:23;8.05;;;4.00;;
51174;SDS011;37240;50.104;20.010;2024-02-26T14:02:24;5.22;;;4.70;;
51174;SDS011;37240;50.104;20.010;2024-02-26T14:07:24;14.88;;;4.35;;
51174;SDS011;37240;50.104;20.010;2024-02-26T14:12:25;6.80;;;4.65;;
51174;SDS011;37240;50.104;20.010;2024-02-26T14:17:26;5.15;;;3.95;;
51174;SDS011;37240;50.104;20.010;2024-02-26T14:22:26;5.80;;;4.43;;
51174;SDS011;37240;50.104;20.010;2024-02-26T14:27:27;14.10;;;6.85;;
51174;SDS011;37240;50.104;20.010;2024-02-26T14:32:28;20.00;;;5.93;;
51174;SDS011;37240;50.104;20.010;2024-02-26T14:37:28;9.20;;;6.20;;
51174;SDS011;37240;50.104;20.010;2024-02-26T14:42:29;17.08;;;5.40;;
51174;SDS011;37240;50.104;20.010;2024-02-26T14:47:30;12.38;;;6.68;;
51174;SDS011;37240;50.104;20.010;2024-02-26T14:52:30;10.60;;;6.43;;
51174;SDS011;37240;50.104;20.010;2024-02-26T14:57:31;13.70;;;7.57;;
51174;SDS011;37240;50.104;20.010;2024-02-26T15:02:32;10.85;;;7.72;;
51174;SDS011;37240;50.104;20.010;2024-02-26T15:07:32;16.30;;;8.63;;
51174;SDS011;37240;50.104;20.010;2024-02-26T15:12:33;15.35;;;8.10;;
51174;SDS011;37240;50.104;20.010;2024-02-26T15:17:34;14.38;;;7.80;;
51174;SDS011;37240;50.104;20.010;2024-02-26T15:22:34;14.95;;;8.27;;
51174;SDS011;37240;50.104;20.010;2024-02-26T15:27:36;9.63;;;7.57;;
51174;SDS011;37240;50.104;20.010;2024-02-26T15:32:37;19.70;;;8.48;;
51174;SDS011;37240;50.104;20.010;2024-02-26T15:37:37;17.48;;;9.32;;
51174;SDS011;37240;50.104;20.010;2024-02-26T15:42:38;16.27;;;8.55;;
51174;SDS011;37240;50.104;20.010;2024-02-26T15:47:38;17.00;;;8.93;;
51174;SDS011;37240;50.104;20.010;2024-02-26T15:52:40;22.75;;;12.43;;
51174;SDS011;37240;50.104;20.010;2024-02-26T15:57:41;18.58;;;9.60;;
51174;SDS011;37240;50.104;20.010;2024-02-26T16:02:42;24.50;;;10.02;;
51174;SDS011;37240;50.104;20.010;2024-02-26T16:07:53;19.42;;;10.15;;
51174;SDS011;37240;50.104;20.010;2024-02-26T16:12:57;26.77;;;10.20;;
51174;SDS011;37240;50.104;20.010;2024-02-26T16:18:00;31.63;;;11.32;;
51174;SDS011;37240;50.104;20.010;2024-02-26T16:23:00;26.23;;;11.27;;
51174;SDS011;37240;50.104;20.010;2024-02-26T16:28:01;31.02;;;11.80;;
51174;SDS011;37240;50.104;20.010;2024-02-26T16:33:02;27.10;;;11.88;;
51174;SDS011;37240;50.104;20.010;2024-02-26T16:38:02;27.75;;;13.88;;
51174;SDS011;37240;50.104;20.010;2024-02-26T16:43:03;25.83;;;13.00;;
51174;SDS011;37240;50.104;20.010;2024-02-26T16:48:04;34.78;;;14.70;;
51174;SDS011;37240;50.104;20.010;2024-02-26T16:53:04;52.50;;;23.70;;
51174;SDS011;37240;50.104;20.010;2024-02-26T16:58:05;37.53;;;18.05;;
51174;SDS011;37240;50.104;20.010;2024-02-26T17:03:05;38.92;;;15.65;;
51174;SDS011;37240;50.104;20.010;2024-02-26T17:08:06;34.03;;;15.68;;
51174;SDS011;37240;50.104;20.010;2024-02-26T17:13:06;36.63;;;16.23;;
51174;SDS011;37240;50.104;20.010;2024-02-26T17:18:07;29.17;;;15.25;;
51174;SDS011;37240;50.104;20.010;2024-02-26T17:23:08;40.33;;;16.20;;
51174;SDS011;37240;50.104;20.010;2024-02-26T17:28:08;39.30;;;16.52;;
51174;SDS011;37240;50.104;20.010;2024-02-26T17:33:09;46.33;;;16.65;;
51174;SDS011;37240;50.104;20.010;2024-02-26T17:38:09;44.03;;;16.40;;
51174;SDS011;37240;50.104;20.010;2024-02-26T17:43:10;32.22;;;16.60;;
51174;SDS011;37240;50.104;20.010;2024-02-26T17:48:11;38.35;;;19.35;;
51174;SDS011;37240;50.104;20.010;2024-02-26T17:53:12;40.17;;;18.35;;
51174;SDS011;37240;50.104;20.010;2024-02-26T17:58:12;42.63;;;17.98;;
51174;SDS011;37240;50.104;20.010;2024-02-26T18:03:13;35.58;;;18.08;;
51174;SDS011;37240;50.104;20.010;2024-02-26T18:08:15;37.42;;;16.48;;
51174;SDS011;37240;50.104;20.010;2024-02-26T18:13:15;36.38;;;16.83;;
51174;SDS011;37240;50.104;20.010;2024-02-26T18:18:16;34.88;;;17.17;;
51174;SDS011;37240;50.104;20.010;2024-02-26T18:23:16;38.00;;;17.13;;
51174;SDS011;37240;50.104;20.010;2024-02-26T18:28:17;38.45;;;17.20;;
51174;SDS011;37240;50.104;20.010;2024-02-26T18:33:17;28.02;;;16.20;;
51174;SDS011;37240;50.104;20.010;2024-02-26T18:38:18;51.47;;;23.52;;
51174;SDS011;37240;50.104;20.010;2024-02-26T18:43:19;44.35;;;18.70;;
51174;SDS011;37240;50.104;20.010;2024-02-26T18:48:19;42.13;;;18.45;;
51174;SDS011;37240;50.104;20.010;2024-02-26T18:53:26;35.05;;;16.45;;
51174;SDS011;37240;50.104;20.010;2024-02-26T18:58:26;40.00;;;19.95;;
51174;SDS011;37240;50.104;20.010;2024-02-26T19:03:28;33.38;;;16.35;;
51174;SDS011;37240;50.104;20.010;2024-02-26T19:08:31;45.90;;;18.48;;
51174;SDS011;37240;50.104;20.010;2024-02-26T19:13:33;39.67;;;18.67;;
51174;SDS011;37240;50.104;20.010;2024-02-26T19:18:34;46.65;;;22.45;;
51174;SDS011;37240;50.104;20.010;2024-02-26T19:23:34;52.03;;;23.33;;
51174;SDS011;37240;50.104;20.010;2024-02-26T19:28:35;54.90;;;22.80;;
51174;SDS011;37240;50.104;20.010;2024-02-26T19:33:35;49.42;;;21.45;;
51174;SDS011;37240;50.104;20.010;2024-02-26T19:38:36;53.67;;;25.00;;
51174;SDS011;37240;50.104;20.010;2024-02-26T19:43:36;56.15;;;22.55;;
51174;SDS011;37240;50.104;20.010;2024-02-26T19:48:37;59.35;;;24.42;;
51174;SDS011;37240;50.104;20.010;2024-02-26T19:53:38;54.80;;;23.08;;
51174;SDS011;37240;50.104;20.010;2024-02-26T19:58:39;58.55;;;23.42;;
51174;SDS011;37240;50.104;20.010;2024-02-26T20:03:39;68.80;;;26.38;;
51174;SDS011;37240;50.104;20.010;2024-02-26T20:08:40;99.15;;;40.47;;
51174;SDS011;37240;50.104;20.010;2024-02-26T20:13:41;65.57;;;29.95;;
51174;SDS011;37240;50.104;20.010;2024-02-26T20:18:41;67.47;;;27.50;;
51174;SDS011;37240;50.104;20.010;2024-02-26T20:23:42;65.80;;;29.63;;
51174;SDS011;37240;50.104;20.010;2024-02-26T20:28:42;66.30;;;26.50;;
51174;SDS011;37240;50.104;20.010;2024-02-26T20:33:43;58.28;;;23.85;;
51174;SDS011;37240;50.104;20.010;2024-02-26T20:38:43;56.35;;;25.25;;
51174;SDS011;37240;50.104;20.010;2024-02-26T20:43:47;56.15;;;25.08;;
51174;SDS011;37240;50.104;20.010;2024-02-26T20:48:48;58.38;;;23.85;;
51174;SDS011;37240;50.104;20.010;2024-02-26T20:53:48;61.17;;;25.45;;
51174;SDS011;37240;50.104;20.010;2024-02-26T20:58:49;62.35;;;26.73;;
51174;SDS011;37240;50.104;20.010;2024-02-26T21:03:49;58.92;;;25.35;;
51174;SDS011;37240;50.104;20.010;2024-02-26T21:08:50;64.43;;;26.42;;
51174;SDS011;37240;50.104;20.010;2024-02-26T21:13:50;69.35;;;28.35;;
51174;SDS011;37240;50.104;20.010;2024-02-26T21:18:51;65.65;;;27.50;;
51174;SDS011;37240;50.104;20.010;2024-02-26T21:23:51;61.60;;;26.02;;
51174;SDS011;37240;50.104;20.010;2024-02-26T21:28:52;61.30;;;26.33;;
51174;SDS011;37240;50.104;20.010;2024-02-26T21:33:53;52.70;;;24.00;;
51174;SDS011;37240;50.104;20.010;2024-02-26T21:38:53;66.05;;;26.52;;
51174;SDS011;37240;50.104;20.010;2024-02-26T21:43:54;60.72;;;24.88;;
51174;SDS011;37240;50.104;20.010;2024-02-26T21:48:54;61.55;;;24.98;;
51174;SDS011;37240;50.104;20.010;2024-02-26T21:53:55;74.38;;;26.20;;
51174;SDS011;37240;50.104;20.010;2024-02-26T21:58:56;54.05;;;23.30;;
51174;SDS011;37240;50.104;20.010;2024-02-26T22:03:56;60.83;;;24.70;;
51174;SDS011;37240;50.104;20.010;2024-02-26T22:08:58;77.32;;;35.30;;
51174;SDS011;37240;50.104;20.010;2024-02-26T22:13:58;78.90;;;33.83;;
51174;SDS011;37240;50.104;20.010;2024-02-26T22:18:59;85.28;;;34.10;;
51174;SDS011;37240;50.104;20.010;2024-02-26T22:24:01;62.40;;;29.30;;
51174;SDS011;37240;50.104;20.010;2024-02-26T22:29:01;87.75;;;30.33;;
51174;SDS011;37240;50.104;20.010;2024-02-26T22:34:02;85.05;;;38.30;;
51174;SDS011;37240;50.104;20.010;2024-02-26T22:39:03;80.93;;;32.33;;
51174;SDS011;37240;50.104;20.010;2024-02-26T22:44:03;63.58;;;28.23;;
51174;SDS011;37240;50.104;20.010;2024-02-26T22:49:05;69.82;;;28.88;;
51174;SDS011;37240;50.104;20.010;2024-02-26T22:54:06;68.95;;;30.67;;
51174;SDS011;37240;50.104;20.010;2024-02-26T22:59:07;69.45;;;28.60;;
51174;SDS011;37240;50.104;20.010;2024-02-26T23:04:07;75.47;;;30.63;;
51174;SDS011;37240;50.104;20.010;2024-02-26T23:09:08;71.45;;;28.50;;
51174;SDS011;37240;50.104;20.010;2024-02-26T23:14:09;72.25;;;28.45;;
51174;SDS011;37240;50.104;20.010;2024-02-26T23:19:09;75.68;;;30.60;;
51174;SDS011;37240;50.104;20.010;2024-02-26T23:24:10;68.82;;;30.17;;
51174;SDS011;37240;50.104;20.010;2024-02-26T23:29:10;62.25;;;25.45;;
51174;SDS011;37240;50.104;20.010;2024-02-26T23:34:11;60.85;;;25.80;;
51174;SDS011;37240;50.104;20.010;2024-02-26T23:39:11;60.38;;;24.23;;
51174;SDS011;37240;50.104;20.010;2024-02-26T23:44:12;56.72;;;24.40;;
51174;SDS011;37240;50.104;20.010;2024-02-26T23:49:13;53.65;;;23.23;;
51174;SDS011;37240;50.104;20.010;2024-02-26T23:54:14;57.60;;;25.33;;
51174;SDS011;37240;50.104;20.010;2024-02-26T23:59:14;57.88;;;25.08;;
